sensor_id;sensor_type;location;lat;lon;timestamp;P1;durP1;ratioP1;P2;durP2;ratioP2
16699;SDS011;8466;52.286;21.124;2023-03-16T00:00:56;50.27;;;44.93;;
16699;SDS011;8466;52.286;21.124;2023-03-16T00:03:31;50.83;;;42.53;;
16699;SDS011;8466;52.286;21.124;2023-03-16T00:06:00;55.87;;;48.77;;
16699;SDS011;8466;52.286;21.124;2023-03-16T00:08:29;51.30;;;45.80;;
16699;SDS011;8466;52.286;21.124;2023-03-16T00:10:58;50.33;;;43.43;;
16699;SDS011;8466;52.286;21.124;2023-03-16T00:13:28;49.07;;;40.00;;
16699;SDS011;8466;52.286;21.124;2023-03-16T00:15:58;49.50;;;41.37;;
16699;SDS011;8466;52.286;21.124;2023-03-16T00:18:31;44.87;;;38.90;;
16699;SDS011;8466;52.286;21.124;2023-03-16T00:21:06;49.67;;;41.27;;
16699;SDS011;8466;52.286;21.124;2023-03-16T00:23:35;50.60;;;38.97;;
16699;SDS011;8466;52.286;21.124;2023-03-16T00:26:04;49.07;;;37.23;;
16699;SDS011;8466;52.286;21.124;2023-03-16T00:28:35;47.77;;;36.70;;
16699;SDS011;8466;52.286;21.124;2023-03-16T00:31:04;55.27;;;43.50;;
16699;SDS011;8466;52.286;21.124;2023-03-16T00:33:38;55.13;;;40.00;;
16699;SDS011;8466;52.286;21.124;2023-03-16T00:36:08;54.87;;;37.90;;
16699;SDS011;8466;52.286;21.124;2023-03-16T00:38:38;53.13;;;40.27;;
16699;SDS011;8466;52.286;21.124;2023-03-16T00:41:11;51.70;;;35.60;;
16699;SDS011;8466;52.286;21.124;2023-03-16T00:43:42;48.30;;;34.93;;
16699;SDS011;8466;52.286;21.124;2023-03-16T00:46:12;51.67;;;34.33;;
16699;SDS011;8466;52.286;21.124;2023-03-16T00:48:44;56.37;;;41.87;;
16699;SDS011;8466;52.286;21.124;2023-03-16T00:51:15;54.57;;;35.33;;
16699;SDS011;8466;52.286;21.124;2023-03-16T00:53:44;52.83;;;38.17;;
16699;SDS011;8466;52.286;21.124;2023-03-16T00:56:13;47.63;;;34.20;;
16699;SDS011;8466;52.286;21.124;2023-03-16T00:58:43;50.57;;;34.40;;
16699;SDS011;8466;52.286;21.124;2023-03-16T01:01:12;51.93;;;33.70;;
16699;SDS011;8466;52.286;21.124;2023-03-16T01:03:45;50.03;;;34.60;;
16699;SDS011;8466;52.286;21.124;2023-03-16T01:06:15;51.60;;;35.43;;
16699;SDS011;8466;52.286;21.124;2023-03-16T01:08:46;47.33;;;32.83;;
16699;SDS011;8466;52.286;21.124;2023-03-16T01:11:15;46.77;;;33.17;;
16699;SDS011;8466;52.286;21.124;2023-03-16T01:13:45;50.23;;;35.73;;
16699;SDS011;8466;52.286;21.124;2023-03-16T01:16:14;49.63;;;36.47;;
16699;SDS011;8466;52.286;21.124;2023-03-16T01:18:46;50.40;;;33.83;;
16699;SDS011;8466;52.286;21.124;2023-03-16T01:21:15;54.23;;;33.67;;
16699;SDS011;8466;52.286;21.124;2023-03-16T01:23:44;51.37;;;36.13;;
16699;SDS011;8466;52.286;21.124;2023-03-16T01:26:12;54.13;;;38.53;;
16699;SDS011;8466;52.286;21.124;2023-03-16T01:28:42;55.77;;;35.17;;
16699;SDS011;8466;52.286;21.124;2023-03-16T01:31:14;53.83;;;37.87;;
16699;SDS011;8466;52.286;21.124;2023-03-16T01:33:43;55.10;;;35.60;;
16699;SDS011;8466;52.286;21.124;2023-03-16T01:36:15;55.50;;;34.17;;
16699;SDS011;8466;52.286;21.124;2023-03-16T01:38:44;56.73;;;34.00;;
16699;SDS011;8466;52.286;21.124;2023-03-16T01:41:13;54.13;;;34.13;;
16699;SDS011;8466;52.286;21.124;2023-03-16T01:43:42;55.13;;;35.53;;
16699;SDS011;8466;52.286;21.124;2023-03-16T01:46:17;55.93;;;34.37;;
16699;SDS011;8466;52.286;21.124;2023-03-16T01:48:59;58.90;;;39.00;;
16699;SDS011;8466;52.286;21.124;2023-03-16T01:51:34;56.40;;;37.10;;
16699;SDS011;8466;52.286;21.124;2023-03-16T01:54:10;62.00;;;36.43;;
16699;SDS011;8466;52.286;21.124;2023-03-16T01:56:48;57.70;;;41.80;;
16699;SDS011;8466;52.286;21.124;2023-03-16T01:59:23;57.57;;;35.80;;
16699;SDS011;8466;52.286;21.124;2023-03-16T02:01:54;55.03;;;35.53;;
16699;SDS011;8466;52.286;21.124;2023-03-16T02:04:45;64.43;;;48.03;;
16699;SDS011;8466;52.286;21.124;2023-03-16T02:07:18;63.23;;;43.33;;
16699;SDS011;8466;52.286;21.124;2023-03-16T02:09:50;57.17;;;39.70;;
16699;SDS011;8466;52.286;21.124;2023-03-16T02:12:23;61.47;;;36.57;;
16699;SDS011;8466;52.286;21.124;2023-03-16T02:14:52;55.87;;;41.57;;
16699;SDS011;8466;52.286;21.124;2023-03-16T02:17:21;56.27;;;38.27;;
16699;SDS011;8466;52.286;21.124;2023-03-16T02:19:55;48.80;;;33.67;;
16699;SDS011;8466;52.286;21.124;2023-03-16T02:22:34;46.87;;;31.40;;
16699;SDS011;8466;52.286;21.124;2023-03-16T02:25:04;52.50;;;32.63;;
16699;SDS011;8466;52.286;21.124;2023-03-16T02:27:35;55.57;;;35.37;;
16699;SDS011;8466;52.286;21.124;2023-03-16T02:30:13;49.80;;;31.43;;
16699;SDS011;8466;52.286;21.124;2023-03-16T02:32:42;48.37;;;29.60;;
16699;SDS011;8466;52.286;21.124;2023-03-16T02:35:12;45.13;;;28.70;;
16699;SDS011;8466;52.286;21.124;2023-03-16T02:37:41;47.73;;;29.10;;
16699;SDS011;8466;52.286;21.124;2023-03-16T02:40:15;54.73;;;28.60;;
16699;SDS011;8466;52.286;21.124;2023-03-16T02:42:49;53.30;;;30.67;;
16699;SDS011;8466;52.286;21.124;2023-03-16T02:45:24;51.23;;;29.80;;
16699;SDS011;8466;52.286;21.124;2023-03-16T02:47:59;55.60;;;31.23;;
16699;SDS011;8466;52.286;21.124;2023-03-16T02:50:32;52.90;;;37.20;;
16699;SDS011;8466;52.286;21.124;2023-03-16T02:53:00;69.00;;;53.23;;
16699;SDS011;8466;52.286;21.124;2023-03-16T02:55:29;60.53;;;37.07;;
16699;SDS011;8466;52.286;21.124;2023-03-16T02:57:57;61.80;;;36.23;;
16699;SDS011;8466;52.286;21.124;2023-03-16T03:00:27;55.17;;;34.23;;
16699;SDS011;8466;52.286;21.124;2023-03-16T03:02:57;53.27;;;31.60;;
16699;SDS011;8466;52.286;21.124;2023-03-16T03:05:26;59.33;;;32.43;;
16699;SDS011;8466;52.286;21.124;2023-03-16T03:07:55;54.33;;;29.70;;
16699;SDS011;8466;52.286;21.124;2023-03-16T03:10:23;54.27;;;30.43;;
16699;SDS011;8466;52.286;21.124;2023-03-16T03:12:52;44.67;;;25.60;;
16699;SDS011;8466;52.286;21.124;2023-03-16T03:15:21;47.07;;;26.50;;
16699;SDS011;8466;52.286;21.124;2023-03-16T03:17:51;43.23;;;24.77;;
16699;SDS011;8466;52.286;21.124;2023-03-16T03:20:20;43.47;;;25.20;;
16699;SDS011;8466;52.286;21.124;2023-03-16T03:22:49;41.87;;;24.33;;
16699;SDS011;8466;52.286;21.124;2023-03-16T03:25:19;37.13;;;23.33;;
16699;SDS011;8466;52.286;21.124;2023-03-16T03:27:49;40.23;;;24.00;;
16699;SDS011;8466;52.286;21.124;2023-03-16T03:30:23;38.27;;;22.87;;
16699;SDS011;8466;52.286;21.124;2023-03-16T03:32:54;34.57;;;22.07;;
16699;SDS011;8466;52.286;21.124;2023-03-16T03:35:23;39.33;;;22.33;;
16699;SDS011;8466;52.286;21.124;2023-03-16T03:37:52;34.40;;;20.60;;
16699;SDS011;8466;52.286;21.124;2023-03-16T03:40:21;36.80;;;21.43;;
16699;SDS011;8466;52.286;21.124;2023-03-16T03:42:50;33.37;;;19.57;;
16699;SDS011;8466;52.286;21.124;2023-03-16T03:45:18;35.27;;;21.10;;
16699;SDS011;8466;52.286;21.124;2023-03-16T03:47:47;33.07;;;19.83;;
16699;SDS011;8466;52.286;21.124;2023-03-16T03:50:17;37.73;;;24.00;;
16699;SDS011;8466;52.286;21.124;2023-03-16T03:52:46;36.90;;;24.00;;
16699;SDS011;8466;52.286;21.124;2023-03-16T03:55:15;41.77;;;23.23;;
16699;SDS011;8466;52.286;21.124;2023-03-16T03:57:43;38.73;;;23.97;;
16699;SDS011;8466;52.286;21.124;2023-03-16T04:00:13;44.73;;;23.77;;
16699;SDS011;8466;52.286;21.124;2023-03-16T04:02:46;41.17;;;23.60;;
16699;SDS011;8466;52.286;21.124;2023-03-16T04:05:15;40.20;;;22.13;;
16699;SDS011;8466;52.286;21.124;2023-03-16T04:07:45;35.27;;;22.90;;
16699;SDS011;8466;52.286;21.124;2023-03-16T04:10:14;37.47;;;22.27;;
16699;SDS011;8466;52.286;21.124;2023-03-16T04:12:42;39.43;;;23.73;;
16699;SDS011;8466;52.286;21.124;2023-03-16T04:15:11;40.60;;;23.03;;
16699;SDS011;8466;52.286;21.124;2023-03-16T04:17:39;36.90;;;21.23;;
16699;SDS011;8466;52.286;21.124;2023-03-16T04:20:08;37.50;;;22.67;;
16699;SDS011;8466;52.286;21.124;2023-03-16T04:22:38;35.27;;;21.97;;
16699;SDS011;8466;52.286;21.124;2023-03-16T04:25:09;34.57;;;21.87;;
16699;SDS011;8466;52.286;21.124;2023-03-16T04:27:38;39.07;;;21.80;;
16699;SDS011;8466;52.286;21.124;2023-03-16T04:30:08;35.37;;;21.97;;
16699;SDS011;8466;52.286;21.124;2023-03-16T04:32:38;32.43;;;20.47;;
16699;SDS011;8466;52.286;21.124;2023-03-16T04:35:07;34.10;;;20.27;;
16699;SDS011;8466;52.286;21.124;2023-03-16T04:37:36;32.13;;;20.43;;
16699;SDS011;8466;52.286;21.124;2023-03-16T04:40:05;36.50;;;21.77;;
16699;SDS011;8466;52.286;21.124;2023-03-16T04:42:43;34.80;;;21.17;;
16699;SDS011;8466;52.286;21.124;2023-03-16T04:45:13;39.97;;;23.43;;
16699;SDS011;8466;52.286;21.124;2023-03-16T04:47:44;36.67;;;22.73;;
16699;SDS011;8466;52.286;21.124;2023-03-16T04:50:13;39.70;;;23.87;;
16699;SDS011;8466;52.286;21.124;2023-03-16T04:52:41;39.33;;;26.37;;
16699;SDS011;8466;52.286;21.124;2023-03-16T04:55:10;46.13;;;26.63;;
16699;SDS011;8466;52.286;21.124;2023-03-16T04:57:38;43.10;;;26.83;;
16699;SDS011;8466;52.286;21.124;2023-03-16T05:00:09;43.70;;;33.00;;
16699;SDS011;8466;52.286;21.124;2023-03-16T05:02:44;38.63;;;26.33;;
16699;SDS011;8466;52.286;21.124;2023-03-16T05:05:13;39.27;;;29.30;;
16699;SDS011;8466;52.286;21.124;2023-03-16T05:07:42;39.33;;;25.33;;
16699;SDS011;8466;52.286;21.124;2023-03-16T05:10:11;44.60;;;27.37;;
16699;SDS011;8466;52.286;21.124;2023-03-16T05:12:41;42.80;;;26.63;;
16699;SDS011;8466;52.286;21.124;2023-03-16T05:15:11;38.77;;;25.93;;
16699;SDS011;8466;52.286;21.124;2023-03-16T05:17:40;42.93;;;25.80;;
16699;SDS011;8466;52.286;21.124;2023-03-16T05:20:10;37.83;;;25.90;;
16699;SDS011;8466;52.286;21.124;2023-03-16T05:22:42;37.30;;;25.13;;
16699;SDS011;8466;52.286;21.124;2023-03-16T05:25:14;36.30;;;24.53;;
16699;SDS011;8466;52.286;21.124;2023-03-16T05:27:44;37.27;;;21.27;;
16699;SDS011;8466;52.286;21.124;2023-03-16T05:30:15;34.93;;;21.83;;
16699;SDS011;8466;52.286;21.124;2023-03-16T05:32:44;37.43;;;23.60;;
16699;SDS011;8466;52.286;21.124;2023-03-16T05:35:13;35.43;;;23.83;;
16699;SDS011;8466;52.286;21.124;2023-03-16T05:37:42;36.93;;;22.87;;
16699;SDS011;8466;52.286;21.124;2023-03-16T05:40:11;36.30;;;23.13;;
16699;SDS011;8466;52.286;21.124;2023-03-16T05:42:43;45.97;;;26.40;;
16699;SDS011;8466;52.286;21.124;2023-03-16T05:45:13;38.57;;;25.17;;
16699;SDS011;8466;52.286;21.124;2023-03-16T05:47:44;35.77;;;24.67;;
16699;SDS011;8466;52.286;21.124;2023-03-16T05:50:13;34.70;;;25.73;;
16699;SDS011;8466;52.286;21.124;2023-03-16T05:52:43;33.33;;;24.70;;
16699;SDS011;8466;52.286;21.124;2023-03-16T05:55:15;41.83;;;24.77;;
16699;SDS011;8466;52.286;21.124;2023-03-16T05:57:45;34.37;;;23.70;;
16699;SDS011;8466;52.286;21.124;2023-03-16T06:00:22;31.65;;;22.85;;
16699;SDS011;8466;52.286;21.124;2023-03-16T06:02:53;29.50;;;22.03;;
16699;SDS011;8466;52.286;21.124;2023-03-16T06:05:22;46.17;;;41.40;;
16699;SDS011;8466;52.286;21.124;2023-03-16T06:07:51;30.00;;;22.00;;
16699;SDS011;8466;52.286;21.124;2023-03-16T06:10:20;33.03;;;23.63;;
16699;SDS011;8466;52.286;21.124;2023-03-16T06:12:48;33.40;;;24.50;;
16699;SDS011;8466;52.286;21.124;2023-03-16T06:15:17;34.57;;;25.53;;
16699;SDS011;8466;52.286;21.124;2023-03-16T06:17:51;31.83;;;22.80;;
16699;SDS011;8466;52.286;21.124;2023-03-16T06:20:20;33.20;;;23.40;;
16699;SDS011;8466;52.286;21.124;2023-03-16T06:22:49;31.10;;;23.10;;
16699;SDS011;8466;52.286;21.124;2023-03-16T06:25:18;27.85;;;20.70;;
16699;SDS011;8466;52.286;21.124;2023-03-16T06:27:47;40.33;;;35.53;;
16699;SDS011;8466;52.286;21.124;2023-03-16T06:30:16;30.87;;;25.70;;
16699;SDS011;8466;52.286;21.124;2023-03-16T06:33:01;30.03;;;21.53;;
16699;SDS011;8466;52.286;21.124;2023-03-16T06:35:30;25.10;;;20.20;;
16699;SDS011;8466;52.286;21.124;2023-03-16T06:38:00;25.27;;;20.00;;
16699;SDS011;8466;52.286;21.124;2023-03-16T06:40:32;26.27;;;20.03;;
16699;SDS011;8466;52.286;21.124;2023-03-16T06:43:01;24.93;;;19.93;;
16699;SDS011;8466;52.286;21.124;2023-03-16T06:45:34;24.53;;;21.73;;
16699;SDS011;8466;52.286;21.124;2023-03-16T06:48:08;25.30;;;21.80;;
16699;SDS011;8466;52.286;21.124;2023-03-16T06:50:40;24.87;;;22.07;;
16699;SDS011;8466;52.286;21.124;2023-03-16T06:53:12;25.83;;;22.80;;
16699;SDS011;8466;52.286;21.124;2023-03-16T06:55:41;28.83;;;25.20;;
16699;SDS011;8466;52.286;21.124;2023-03-16T06:58:09;25.43;;;22.27;;
16699;SDS011;8466;52.286;21.124;2023-03-16T07:00:39;30.50;;;23.63;;
16699;SDS011;8466;52.286;21.124;2023-03-16T07:03:09;20.80;;;14.10;;
16699;SDS011;8466;52.286;21.124;2023-03-16T07:05:38;18.38;;;15.40;;
16699;SDS011;8466;52.286;21.124;2023-03-16T07:08:07;20.80;;;18.23;;
16699;SDS011;8466;52.286;21.124;2023-03-16T07:10:36;36.07;;;33.07;;
16699;SDS011;8466;52.286;21.124;2023-03-16T07:13:04;27.23;;;24.90;;
16699;SDS011;8466;52.286;21.124;2023-03-16T07:15:33;26.33;;;23.53;;
16699;SDS011;8466;52.286;21.124;2023-03-16T07:18:02;28.03;;;25.40;;
16699;SDS011;8466;52.286;21.124;2023-03-16T07:20:32;29.33;;;26.80;;
16699;SDS011;8466;52.286;21.124;2023-03-16T07:23:00;29.00;;;26.70;;
16699;SDS011;8466;52.286;21.124;2023-03-16T07:25:30;32.10;;;29.03;;
16699;SDS011;8466;52.286;21.124;2023-03-16T07:27:59;25.23;;;22.87;;
16699;SDS011;8466;52.286;21.124;2023-03-16T07:30:27;21.67;;;19.40;;
16699;SDS011;8466;52.286;21.124;2023-03-16T07:32:56;27.93;;;25.43;;
16699;SDS011;8466;52.286;21.124;2023-03-16T07:35:25;27.43;;;24.33;;
16699;SDS011;8466;52.286;21.124;2023-03-16T07:37:55;32.90;;;30.03;;
16699;SDS011;8466;52.286;21.124;2023-03-16T07:40:24;35.47;;;32.57;;
16699;SDS011;8466;52.286;21.124;2023-03-16T07:42:53;33.10;;;30.73;;
16699;SDS011;8466;52.286;21.124;2023-03-16T07:45:22;38.57;;;35.60;;
16699;SDS011;8466;52.286;21.124;2023-03-16T07:47:51;39.43;;;36.33;;
16699;SDS011;8466;52.286;21.124;2023-03-16T07:50:20;37.17;;;34.17;;
16699;SDS011;8466;52.286;21.124;2023-03-16T07:52:49;46.23;;;42.77;;
16699;SDS011;8466;52.286;21.124;2023-03-16T07:55:19;55.60;;;51.90;;
16699;SDS011;8466;52.286;21.124;2023-03-16T07:57:47;60.77;;;56.57;;
16699;SDS011;8466;52.286;21.124;2023-03-16T08:00:17;84.13;;;79.03;;
16699;SDS011;8466;52.286;21.124;2023-03-16T08:02:49;58.70;;;54.57;;
16699;SDS011;8466;52.286;21.124;2023-03-16T08:05:19;73.23;;;68.57;;
16699;SDS011;8466;52.286;21.124;2023-03-16T08:07:48;85.37;;;79.80;;
16699;SDS011;8466;52.286;21.124;2023-03-16T08:10:18;74.27;;;69.37;;
16699;SDS011;8466;52.286;21.124;2023-03-16T08:12:47;86.07;;;80.47;;
16699;SDS011;8466;52.286;21.124;2023-03-16T08:15:17;87.80;;;82.00;;
16699;SDS011;8466;52.286;21.124;2023-03-16T08:17:47;85.73;;;80.07;;
16699;SDS011;8466;52.286;21.124;2023-03-16T08:20:15;80.47;;;74.67;;
16699;SDS011;8466;52.286;21.124;2023-03-16T08:22:44;83.70;;;77.80;;
16699;SDS011;8466;52.286;21.124;2023-03-16T08:25:15;90.97;;;84.17;;
16699;SDS011;8466;52.286;21.124;2023-03-16T08:27:46;85.73;;;79.67;;
16699;SDS011;8466;52.286;21.124;2023-03-16T08:30:15;80.73;;;74.97;;
16699;SDS011;8466;52.286;21.124;2023-03-16T08:32:44;88.93;;;82.77;;
16699;SDS011;8466;52.286;21.124;2023-03-16T08:35:14;90.90;;;85.07;;
16699;SDS011;8466;52.286;21.124;2023-03-16T08:37:43;91.30;;;85.27;;
16699;SDS011;8466;52.286;21.124;2023-03-16T08:40:12;80.10;;;74.90;;
16699;SDS011;8466;52.286;21.124;2023-03-16T08:42:43;82.93;;;77.03;;
16699;SDS011;8466;52.286;21.124;2023-03-16T08:45:16;73.33;;;68.50;;
16699;SDS011;8466;52.286;21.124;2023-03-16T08:47:45;73.80;;;68.53;;
16699;SDS011;8466;52.286;21.124;2023-03-16T08:50:15;64.03;;;59.63;;
16699;SDS011;8466;52.286;21.124;2023-03-16T08:52:47;54.27;;;50.27;;
16699;SDS011;8466;52.286;21.124;2023-03-16T08:55:17;50.97;;;47.43;;
16699;SDS011;8466;52.286;21.124;2023-03-16T08:57:45;43.23;;;40.13;;
16699;SDS011;8466;52.286;21.124;2023-03-16T09:00:17;38.90;;;35.90;;
16699;SDS011;8466;52.286;21.124;2023-03-16T09:02:46;83.53;;;78.13;;
16699;SDS011;8466;52.286;21.124;2023-03-16T09:05:15;75.47;;;70.57;;
16699;SDS011;8466;52.286;21.124;2023-03-16T09:07:44;47.90;;;44.50;;
16699;SDS011;8466;52.286;21.124;2023-03-16T09:10:14;40.00;;;37.00;;
16699;SDS011;8466;52.286;21.124;2023-03-16T09:12:44;43.13;;;39.73;;
16699;SDS011;8466;52.286;21.124;2023-03-16T09:15:13;41.50;;;38.53;;
16699;SDS011;8466;52.286;21.124;2023-03-16T09:17:44;32.40;;;29.77;;
16699;SDS011;8466;52.286;21.124;2023-03-16T09:20:13;28.93;;;26.47;;
16699;SDS011;8466;52.286;21.124;2023-03-16T09:22:51;37.40;;;34.60;;
16699;SDS011;8466;52.286;21.124;2023-03-16T09:25:20;33.63;;;31.13;;
16699;SDS011;8466;52.286;21.124;2023-03-16T09:27:50;30.60;;;28.27;;
16699;SDS011;8466;52.286;21.124;2023-03-16T09:30:34;28.53;;;26.07;;
16699;SDS011;8466;52.286;21.124;2023-03-16T09:33:05;44.60;;;41.30;;
16699;SDS011;8466;52.286;21.124;2023-03-16T09:35:34;30.93;;;28.33;;
16699;SDS011;8466;52.286;21.124;2023-03-16T09:38:03;37.97;;;34.93;;
16699;SDS011;8466;52.286;21.124;2023-03-16T09:40:33;29.97;;;27.97;;
16699;SDS011;8466;52.286;21.124;2023-03-16T09:43:17;19.83;;;18.33;;
16699;SDS011;8466;52.286;21.124;2023-03-16T09:45:58;21.30;;;19.30;;
16699;SDS011;8466;52.286;21.124;2023-03-16T09:48:35;22.37;;;20.30;;
16699;SDS011;8466;52.286;21.124;2023-03-16T09:51:07;19.97;;;18.37;;
16699;SDS011;8466;52.286;21.124;2023-03-16T09:53:41;20.80;;;18.97;;
16699;SDS011;8466;52.286;21.124;2023-03-16T09:56:13;17.43;;;15.90;;
16699;SDS011;8466;52.286;21.124;2023-03-16T09:58:47;21.23;;;19.33;;
16699;SDS011;8466;52.286;21.124;2023-03-16T10:01:16;18.77;;;17.07;;
16699;SDS011;8466;52.286;21.124;2023-03-16T10:06:35;16.47;;;15.10;;
16699;SDS011;8466;52.286;21.124;2023-03-16T10:09:15;22.13;;;20.17;;
16699;SDS011;8466;52.286;21.124;2023-03-16T10:11:52;23.90;;;21.73;;
16699;SDS011;8466;52.286;21.124;2023-03-16T10:14:22;13.67;;;12.37;;
16699;SDS011;8466;52.286;21.124;2023-03-16T10:16:59;15.20;;;14.00;;
16699;SDS011;8466;52.286;21.124;2023-03-16T10:19:35;14.00;;;12.80;;
16699;SDS011;8466;52.286;21.124;2023-03-16T10:22:12;11.95;;;10.85;;
16699;SDS011;8466;52.286;21.124;2023-03-16T10:24:51;10.83;;;9.93;;
16699;SDS011;8466;52.286;21.124;2023-03-16T10:27:34;13.87;;;10.97;;
16699;SDS011;8466;52.286;21.124;2023-03-16T10:30:09;14.30;;;11.77;;
16699;SDS011;8466;52.286;21.124;2023-03-16T10:32:47;10.83;;;9.73;;
16699;SDS011;8466;52.286;21.124;2023-03-16T10:35:21;17.00;;;15.40;;
16699;SDS011;8466;52.286;21.124;2023-03-16T10:37:57;19.83;;;18.23;;
16699;SDS011;8466;52.286;21.124;2023-03-16T10:40:29;22.93;;;21.17;;
16699;SDS011;8466;52.286;21.124;2023-03-16T10:43:04;20.43;;;18.47;;
16699;SDS011;8466;52.286;21.124;2023-03-16T10:45:35;18.87;;;16.83;;
16699;SDS011;8466;52.286;21.124;2023-03-16T10:48:07;26.47;;;24.60;;
16699;SDS011;8466;52.286;21.124;2023-03-16T10:50:41;35.97;;;33.57;;
16699;SDS011;8466;52.286;21.124;2023-03-16T10:53:14;22.00;;;20.20;;
16699;SDS011;8466;52.286;21.124;2023-03-16T10:55:46;12.60;;;11.37;;
16699;SDS011;8466;52.286;21.124;2023-03-16T10:58:22;15.20;;;14.10;;
16699;SDS011;8466;52.286;21.124;2023-03-16T11:00:54;25.93;;;24.17;;
16699;SDS011;8466;52.286;21.124;2023-03-16T11:03:24;17.90;;;15.63;;
16699;SDS011;8466;52.286;21.124;2023-03-16T11:05:59;23.87;;;16.07;;
16699;SDS011;8466;52.286;21.124;2023-03-16T11:08:30;18.27;;;13.43;;
16699;SDS011;8466;52.286;21.124;2023-03-16T11:11:06;38.37;;;34.33;;
16699;SDS011;8466;52.286;21.124;2023-03-16T11:13:37;36.40;;;32.70;;
16699;SDS011;8466;52.286;21.124;2023-03-16T11:16:16;48.20;;;44.13;;
16699;SDS011;8466;52.286;21.124;2023-03-16T11:18:51;18.70;;;15.30;;
16699;SDS011;8466;52.286;21.124;2023-03-16T11:21:26;32.60;;;29.70;;
16699;SDS011;8466;52.286;21.124;2023-03-16T11:24:04;16.07;;;14.67;;
16699;SDS011;8466;52.286;21.124;2023-03-16T11:26:40;12.73;;;10.90;;
16699;SDS011;8466;52.286;21.124;2023-03-16T11:29:15;20.07;;;18.47;;
16699;SDS011;8466;52.286;21.124;2023-03-16T11:31:49;36.63;;;33.13;;
16699;SDS011;8466;52.286;21.124;2023-03-16T11:34:22;20.23;;;18.48;;
16699;SDS011;8466;52.286;21.124;2023-03-16T11:37:02;33.33;;;30.23;;
16699;SDS011;8466;52.286;21.124;2023-03-16T11:39:41;27.87;;;25.47;;
16699;SDS011;8466;52.286;21.124;2023-03-16T11:45:16;23.27;;;21.63;;
16699;SDS011;8466;52.286;21.124;2023-03-16T11:48:04;33.03;;;29.17;;
16699;SDS011;8466;52.286;21.124;2023-03-16T11:53:34;17.00;;;15.40;;
16699;SDS011;8466;52.286;21.124;2023-03-16T11:56:15;19.37;;;17.53;;
16699;SDS011;8466;52.286;21.124;2023-03-16T12:01:53;19.33;;;17.90;;
16699;SDS011;8466;52.286;21.124;2023-03-16T12:04:34;16.50;;;15.40;;
16699;SDS011;8466;52.286;21.124;2023-03-16T12:07:21;18.17;;;16.63;;
16699;SDS011;8466;52.286;21.124;2023-03-16T12:10:16;17.13;;;15.93;;
16699;SDS011;8466;52.286;21.124;2023-03-16T12:12:53;28.23;;;26.40;;
16699;SDS011;8466;52.286;21.124;2023-03-16T12:15:31;15.93;;;14.43;;
16699;SDS011;8466;52.286;21.124;2023-03-16T12:18:10;25.17;;;20.97;;
16699;SDS011;8466;52.286;21.124;2023-03-16T12:20:50;23.73;;;21.47;;
16699;SDS011;8466;52.286;21.124;2023-03-16T12:23:25;19.57;;;16.93;;
16699;SDS011;8466;52.286;21.124;2023-03-16T12:26:03;19.93;;;16.73;;
16699;SDS011;8466;52.286;21.124;2023-03-16T12:28:44;18.77;;;16.83;;
16699;SDS011;8466;52.286;21.124;2023-03-16T12:31:15;14.97;;;13.47;;
16699;SDS011;8466;52.286;21.124;2023-03-16T12:33:52;15.47;;;14.03;;
16699;SDS011;8466;52.286;21.124;2023-03-16T12:42:55;19.53;;;17.63;;
16699;SDS011;8466;52.286;21.124;2023-03-16T12:45:37;28.83;;;20.30;;
16699;SDS011;8466;52.286;21.124;2023-03-16T12:48:17;19.30;;;16.17;;
16699;SDS011;8466;52.286;21.124;2023-03-16T12:50:55;35.95;;;33.25;;
16699;SDS011;8466;52.286;21.124;2023-03-16T12:53:27;15.23;;;11.27;;
16699;SDS011;8466;52.286;21.124;2023-03-16T12:56:11;16.63;;;13.73;;
16699;SDS011;8466;52.286;21.124;2023-03-16T12:58:44;17.37;;;15.80;;
16699;SDS011;8466;52.286;21.124;2023-03-16T13:01:16;16.67;;;15.03;;
16699;SDS011;8466;52.286;21.124;2023-03-16T13:03:58;15.70;;;13.33;;
16699;SDS011;8466;52.286;21.124;2023-03-16T13:06:33;20.17;;;18.57;;
16699;SDS011;8466;52.286;21.124;2023-03-16T13:09:10;17.17;;;15.60;;
16699;SDS011;8466;52.286;21.124;2023-03-16T13:11:55;18.57;;;16.63;;
16699;SDS011;8466;52.286;21.124;2023-03-16T13:14:34;16.33;;;14.63;;
16699;SDS011;8466;52.286;21.124;2023-03-16T13:17:24;17.57;;;16.07;;
16699;SDS011;8466;52.286;21.124;2023-03-16T13:19:59;16.00;;;14.60;;
16699;SDS011;8466;52.286;21.124;2023-03-16T13:22:42;16.13;;;14.50;;
16699;SDS011;8466;52.286;21.124;2023-03-16T13:25:15;15.23;;;12.53;;
16699;SDS011;8466;52.286;21.124;2023-03-16T13:27:49;21.73;;;19.83;;
16699;SDS011;8466;52.286;21.124;2023-03-16T13:30:23;20.60;;;18.80;;
16699;SDS011;8466;52.286;21.124;2023-03-16T13:32:58;33.40;;;30.07;;
16699;SDS011;8466;52.286;21.124;2023-03-16T13:35:35;24.30;;;21.77;;
16699;SDS011;8466;52.286;21.124;2023-03-16T13:38:12;25.77;;;23.43;;
16699;SDS011;8466;52.286;21.124;2023-03-16T13:40:46;23.83;;;21.77;;
16699;SDS011;8466;52.286;21.124;2023-03-16T13:43:22;27.80;;;25.63;;
16699;SDS011;8466;52.286;21.124;2023-03-16T13:46:14;19.13;;;16.10;;
16699;SDS011;8466;52.286;21.124;2023-03-16T13:48:45;22.67;;;19.57;;
16699;SDS011;8466;52.286;21.124;2023-03-16T13:51:17;22.73;;;17.90;;
16699;SDS011;8466;52.286;21.124;2023-03-16T13:53:48;37.13;;;32.20;;
16699;SDS011;8466;52.286;21.124;2023-03-16T13:56:21;39.93;;;35.17;;
16699;SDS011;8466;52.286;21.124;2023-03-16T13:58:52;19.00;;;15.97;;
16699;SDS011;8466;52.286;21.124;2023-03-16T14:01:26;15.03;;;13.20;;
16699;SDS011;8466;52.286;21.124;2023-03-16T14:03:58;17.20;;;14.93;;
16699;SDS011;8466;52.286;21.124;2023-03-16T14:06:36;18.47;;;13.97;;
16699;SDS011;8466;52.286;21.124;2023-03-16T14:09:19;20.27;;;18.63;;
16699;SDS011;8466;52.286;21.124;2023-03-16T14:12:00;23.53;;;21.73;;
16699;SDS011;8466;52.286;21.124;2023-03-16T14:14:30;29.97;;;27.70;;
16699;SDS011;8466;52.286;21.124;2023-03-16T14:17:11;22.00;;;19.87;;
16699;SDS011;8466;52.286;21.124;2023-03-16T14:19:45;21.40;;;19.63;;
16699;SDS011;8466;52.286;21.124;2023-03-16T14:22:23;25.13;;;23.27;;
16699;SDS011;8466;52.286;21.124;2023-03-16T14:25:16;22.37;;;20.70;;
16699;SDS011;8466;52.286;21.124;2023-03-16T14:27:55;19.03;;;17.23;;
16699;SDS011;8466;52.286;21.124;2023-03-16T14:30:26;12.67;;;11.47;;
16699;SDS011;8466;52.286;21.124;2023-03-16T14:33:21;13.83;;;12.53;;
16699;SDS011;8466;52.286;21.124;2023-03-16T14:35:55;15.93;;;14.43;;
16699;SDS011;8466;52.286;21.124;2023-03-16T14:38:43;21.30;;;19.23;;
16699;SDS011;8466;52.286;21.124;2023-03-16T14:44:54;38.87;;;32.37;;
16699;SDS011;8466;52.286;21.124;2023-03-16T14:47:40;35.73;;;31.17;;
16699;SDS011;8466;52.286;21.124;2023-03-16T14:51:16;40.03;;;31.87;;
16699;SDS011;8466;52.286;21.124;2023-03-16T14:53:54;68.83;;;44.93;;
16699;SDS011;8466;52.286;21.124;2023-03-16T14:56:34;23.93;;;19.60;;
16699;SDS011;8466;52.286;21.124;2023-03-16T14:59:43;21.80;;;14.77;;
16699;SDS011;8466;52.286;21.124;2023-03-16T15:02:22;13.57;;;12.13;;
16699;SDS011;8466;52.286;21.124;2023-03-16T15:04:57;17.23;;;15.47;;
16699;SDS011;8466;52.286;21.124;2023-03-16T15:07:35;16.93;;;13.90;;
16699;SDS011;8466;52.286;21.124;2023-03-16T15:10:20;37.33;;;29.07;;
16699;SDS011;8466;52.286;21.124;2023-03-16T15:13:24;36.13;;;29.53;;
16699;SDS011;8466;52.286;21.124;2023-03-16T15:16:33;23.10;;;20.60;;